sensor_id;sensor_type;location;lat;lon;timestamp;pressure;altitude;pressure_sealevel;temperature;humidity
5126;BME280;63008;53.112;8.896;2023-04-06T00:01:41;101954.03;;;2.77;80.36
5126;BME280;63008;53.112;8.896;2023-04-06T00:03:42;101962.47;;;3.02;80.02
5126;BME280;63008;53.112;8.896;2023-04-06T00:05:43;101956.28;;;3.07;79.56
5126;BME280;63008;53.112;8.896;2023-04-06T00:07:44;101959.59;;;2.87;80.01
5126;BME280;63008;53.112;8.896;2023-04-06T00:09:45;101958.16;;;2.80;80.37
5126;BME280;63008;53.112;8.896;2023-04-06T00:11:46;101956.38;;;2.69;81.01
5126;BME280;63008;53.112;8.896;2023-04-06T00:13:48;101956.75;;;2.77;81.13
5126;BME280;63008;53.112;8.896;2023-04-06T00:15:49;101957.31;;;2.79;80.82
5126;BME280;63008;53.112;8.896;2023-04-06T00:17:50;101958.25;;;2.90;80.70
5126;BME280;63008;53.112;8.896;2023-04-06T00:19:51;101958.69;;;3.03;80.55
5126;BME280;63008;53.112;8.896;2023-04-06T00:21:52;101957.72;;;3.14;79.90
5126;BME280;63008;53.112;8.896;2023-04-06T00:23:53;101954.16;;;3.09;79.51
5126;BME280;63008;53.112;8.896;2023-04-06T00:25:54;101954.97;;;3.09;79.81
5126;BME280;63008;53.112;8.896;2023-04-06T00:27:56;101952.19;;;3.04;79.61
5126;BME280;63008;53.112;8.896;2023-04-06T00:29:57;101955.34;;;2.96;80.17
5126;BME280;63008;53.112;8.896;2023-04-06T00:31:58;101947.22;;;2.96;80.41
5126;BME280;63008;53.112;8.896;2023-04-06T00:33:59;101943.69;;;2.96;80.90
5126;BME280;63008;53.112;8.896;2023-04-06T00:36:00;101947.66;;;3.10;80.32
5126;BME280;63008;53.112;8.896;2023-04-06T00:38:01;101945.06;;;2.98;80.38
5126;BME280;63008;53.112;8.896;2023-04-06T00:40:02;101944.31;;;2.81;80.69
5126;BME280;63008;53.112;8.896;2023-04-06T00:42:10;101929.97;;;2.59;81.21
5126;BME280;63008;53.112;8.896;2023-04-06T00:44:13;101935.53;;;2.48;82.04
5126;BME280;63008;53.112;8.896;2023-04-06T00:46:14;101933.94;;;2.52;81.89
5126;BME280;63008;53.112;8.896;2023-04-06T00:48:15;101936.25;;;2.43;82.37
5126;BME280;63008;53.112;8.896;2023-04-06T00:50:17;101931.34;;;2.40;82.47
5126;BME280;63008;53.112;8.896;2023-04-06T00:52:18;101936.78;;;2.40;82.31
5126;BME280;63008;53.112;8.896;2023-04-06T00:54:19;101931.00;;;2.53;82.36
5126;BME280;63008;53.112;8.896;2023-04-06T00:56:20;101934.88;;;2.62;81.69
5126;BME280;63008;53.112;8.896;2023-04-06T00:58:22;101931.09;;;2.63;81.66
5126;BME280;63008;53.112;8.896;2023-04-06T01:00:23;101937.41;;;2.69;81.00
5126;BME280;63008;53.112;8.896;2023-04-06T01:02:24;101935.78;;;2.68;80.77
5126;BME280;63008;53.112;8.896;2023-04-06T01:04:26;101927.97;;;2.71;80.72
5126;BME280;63008;53.112;8.896;2023-04-06T01:06:28;101928.59;;;2.57;80.95
5126;BME280;63008;53.112;8.896;2023-04-06T01:08:29;101923.50;;;2.39;81.41
5126;BME280;63008;53.112;8.896;2023-04-06T01:10:30;101923.28;;;2.24;82.40
5126;BME280;63008;53.112;8.896;2023-04-06T01:12:32;101923.47;;;2.17;82.49
5126;BME280;63008;53.112;8.896;2023-04-06T01:14:33;101918.56;;;2.14;82.59
5126;BME280;63008;53.112;8.896;2023-04-06T01:16:34;101921.09;;;2.04;83.10
5126;BME280;63008;53.112;8.896;2023-04-06T01:18:35;101911.56;;;2.18;83.16
5126;BME280;63008;53.112;8.896;2023-04-06T01:20:38;101917.09;;;2.28;82.58
5126;BME280;63008;53.112;8.896;2023-04-06T01:22:39;101913.81;;;2.26;82.80
5126;BME280;63008;53.112;8.896;2023-04-06T01:24:40;101912.75;;;2.27;82.88
5126;BME280;63008;53.112;8.896;2023-04-06T01:26:42;101914.59;;;2.22;82.65
5126;BME280;63008;53.112;8.896;2023-04-06T01:28:43;101907.78;;;2.19;82.54
5126;BME280;63008;53.112;8.896;2023-04-06T01:30:45;101915.34;;;2.17;82.75
5126;BME280;63008;53.112;8.896;2023-04-06T01:32:46;101907.56;;;2.04;83.11
5126;BME280;63008;53.112;8.896;2023-04-06T01:34:47;101903.78;;;2.05;83.18
5126;BME280;63008;53.112;8.896;2023-04-06T01:36:48;101900.53;;;2.03;83.33
5126;BME280;63008;53.112;8.896;2023-04-06T01:38:49;101899.72;;;2.03;83.39
5126;BME280;63008;53.112;8.896;2023-04-06T01:40:53;101907.34;;;2.06;83.48
5126;BME280;63008;53.112;8.896;2023-04-06T01:42:54;101902.16;;;2.04;83.44
5126;BME280;63008;53.112;8.896;2023-04-06T01:44:55;101904.13;;;2.09;83.64
5126;BME280;63008;53.112;8.896;2023-04-06T01:46:56;101895.50;;;2.12;83.28
5126;BME280;63008;53.112;8.896;2023-04-06T01:48:57;101893.63;;;2.12;83.40
5126;BME280;63008;53.112;8.896;2023-04-06T01:51:01;101896.06;;;2.14;83.42
5126;BME280;63008;53.112;8.896;2023-04-06T01:53:02;101891.47;;;2.14;83.30
5126;BME280;63008;53.112;8.896;2023-04-06T01:55:03;101895.00;;;2.15;83.13
5126;BME280;63008;53.112;8.896;2023-04-06T01:57:04;101884.03;;;2.26;83.13
5126;BME280;63008;53.112;8.896;2023-04-06T01:59:05;101883.81;;;2.28;82.51
5126;BME280;63008;53.112;8.896;2023-04-06T02:01:06;101884.31;;;2.25;82.58
5126;BME280;63008;53.112;8.896;2023-04-06T02:03:07;101879.53;;;2.32;82.23
5126;BME280;63008;53.112;8.896;2023-04-06T02:05:08;101873.22;;;2.26;82.30
5126;BME280;63008;53.112;8.896;2023-04-06T02:07:09;101882.34;;;2.20;82.59
5126;BME280;63008;53.112;8.896;2023-04-06T02:09:10;101874.47;;;2.19;82.65
5126;BME280;63008;53.112;8.896;2023-04-06T02:11:11;101878.81;;;2.20;82.62
5126;BME280;63008;53.112;8.896;2023-04-06T02:13:12;101872.97;;;2.28;82.09
5126;BME280;63008;53.112;8.896;2023-04-06T02:15:13;101865.41;;;2.30;81.93
5126;BME280;63008;53.112;8.896;2023-04-06T02:17:14;101867.81;;;2.26;81.96
5126;BME280;63008;53.112;8.896;2023-04-06T02:19:15;101868.44;;;2.12;82.06
5126;BME280;63008;53.112;8.896;2023-04-06T02:21:16;101866.16;;;2.04;82.68
5126;BME280;63008;53.112;8.896;2023-04-06T02:23:20;101863.31;;;1.94;82.90
5126;BME280;63008;53.112;8.896;2023-04-06T02:25:21;101863.88;;;1.96;82.75
5126;BME280;63008;53.112;8.896;2023-04-06T02:27:22;101862.41;;;1.88;82.94
5126;BME280;63008;53.112;8.896;2023-04-06T02:29:23;101865.06;;;1.83;82.86
5126;BME280;63008;53.112;8.896;2023-04-06T02:31:24;101862.53;;;1.77;83.26
5126;BME280;63008;53.112;8.896;2023-04-06T02:33:25;101869.06;;;1.81;83.55
5126;BME280;63008;53.112;8.896;2023-04-06T02:35:28;101865.22;;;1.77;83.50
5126;BME280;63008;53.112;8.896;2023-04-06T02:37:29;101867.69;;;1.78;83.66
5126;BME280;63008;53.112;8.896;2023-04-06T02:39:30;101869.84;;;1.77;83.23
5126;BME280;63008;53.112;8.896;2023-04-06T02:41:31;101863.03;;;1.74;83.35
5126;BME280;63008;53.112;8.896;2023-04-06T02:43:32;101870.06;;;1.75;83.18
5126;BME280;63008;53.112;8.896;2023-04-06T02:45:33;101863.44;;;1.66;83.44
5126;BME280;63008;53.112;8.896;2023-04-06T02:47:34;101865.84;;;1.63;83.74
5126;BME280;63008;53.112;8.896;2023-04-06T02:49:36;101863.69;;;1.65;83.81
5126;BME280;63008;53.112;8.896;2023-04-06T02:51:37;101863.69;;;1.65;83.45
5126;BME280;63008;53.112;8.896;2023-04-06T02:53:38;101859.84;;;1.61;83.27
5126;BME280;63008;53.112;8.896;2023-04-06T02:55:39;101856.25;;;1.55;83.49
5126;BME280;63008;53.112;8.896;2023-04-06T02:57:39;101857.31;;;1.54;83.51
5126;BME280;63008;53.112;8.896;2023-04-06T02:59:40;101851.25;;;1.47;83.55
5126;BME280;63008;53.112;8.896;2023-04-06T03:01:41;101848.81;;;1.46;84.21
5126;BME280;63008;53.112;8.896;2023-04-06T03:03:42;101851.16;;;1.42;84.15
5126;BME280;63008;53.112;8.896;2023-04-06T03:05:43;101850.03;;;1.38;84.16
5126;BME280;63008;53.112;8.896;2023-04-06T03:07:44;101847.41;;;1.43;83.92
5126;BME280;63008;53.112;8.896;2023-04-06T03:09:46;101846.84;;;1.41;83.91
5126;BME280;63008;53.112;8.896;2023-04-06T03:11:46;101845.44;;;1.39;83.80
5126;BME280;63008;53.112;8.896;2023-04-06T03:13:47;101838.53;;;1.31;84.08
5126;BME280;63008;53.112;8.896;2023-04-06T03:15:48;101835.28;;;1.29;84.11
5126;BME280;63008;53.112;8.896;2023-04-06T03:17:49;101845.63;;;1.32;83.95
5126;BME280;63008;53.112;8.896;2023-04-06T03:19:50;101847.56;;;1.37;83.81
5126;BME280;63008;53.112;8.896;2023-04-06T03:21:51;101845.44;;;1.39;83.62
5126;BME280;63008;53.112;8.896;2023-04-06T03:23:52;101842.91;;;1.32;83.20
5126;BME280;63008;53.112;8.896;2023-04-06T03:25:53;101843.72;;;1.33;83.32
5126;BME280;63008;53.112;8.896;2023-04-06T03:27:54;101844.28;;;1.35;83.14
5126;BME280;63008;53.112;8.896;2023-04-06T03:29:55;101842.31;;;1.30;83.03
5126;BME280;63008;53.112;8.896;2023-04-06T03:31:56;101841.84;;;1.33;83.05
5126;BME280;63008;53.112;8.896;2023-04-06T03:33:57;101842.50;;;1.24;82.98
5126;BME280;63008;53.112;8.896;2023-04-06T03:35:58;101832.50;;;1.24;83.15
5126;BME280;63008;53.112;8.896;2023-04-06T03:37:59;101841.44;;;1.25;83.13
5126;BME280;63008;53.112;8.896;2023-04-06T03:40:00;101841.09;;;1.21;83.39
5126;BME280;63008;53.112;8.896;2023-04-06T03:42:01;101848.38;;;1.21;83.36
5126;BME280;63008;53.112;8.896;2023-04-06T03:44:02;101839.19;;;1.22;83.04
5126;BME280;63008;53.112;8.896;2023-04-06T03:46:03;101838.63;;;1.20;83.07
5126;BME280;63008;53.112;8.896;2023-04-06T03:48:04;101841.34;;;1.20;82.89
5126;BME280;63008;53.112;8.896;2023-04-06T03:50:06;101842.75;;;1.22;82.71
5126;BME280;63008;53.112;8.896;2023-04-06T03:52:07;101843.13;;;1.14;83.03
5126;BME280;63008;53.112;8.896;2023-04-06T03:54:08;101843.47;;;1.18;83.22
5126;BME280;63008;53.112;8.896;2023-04-06T03:56:09;101833.50;;;1.18;82.87
5126;BME280;63008;53.112;8.896;2023-04-06T03:58:10;101839.63;;;1.14;82.99
5126;BME280;63008;53.112;8.896;2023-04-06T04:00:11;101844.69;;;1.10;83.32
5126;BME280;63008;53.112;8.896;2023-04-06T04:02:13;101845.66;;;1.21;83.10
5126;BME280;63008;53.112;8.896;2023-04-06T04:04:14;101846.16;;;1.18;82.46
5126;BME280;63008;53.112;8.896;2023-04-06T04:06:15;101856.56;;;1.09;82.72
5126;BME280;63008;53.112;8.896;2023-04-06T04:08:15;101844.84;;;1.04;83.35
5126;BME280;63008;53.112;8.896;2023-04-06T04:10:16;101855.22;;;0.95;83.62
5126;BME280;63008;53.112;8.896;2023-04-06T04:12:18;101852.22;;;1.08;84.00
5126;BME280;63008;53.112;8.896;2023-04-06T04:14:19;101847.53;;;1.04;83.62
5126;BME280;63008;53.112;8.896;2023-04-06T04:16:21;101850.94;;;1.11;83.77
5126;BME280;63008;53.112;8.896;2023-04-06T04:18:22;101847.38;;;1.10;84.06
5126;BME280;63008;53.112;8.896;2023-04-06T04:20:23;101854.19;;;1.13;84.12
5126;BME280;63008;53.112;8.896;2023-04-06T04:22:23;101856.59;;;1.26;83.75
5126;BME280;63008;53.112;8.896;2023-04-06T04:24:24;101858.22;;;1.27;83.34
5126;BME280;63008;53.112;8.896;2023-04-06T04:26:25;101858.72;;;1.24;83.18
5126;BME280;63008;53.112;8.896;2023-04-06T04:28:26;101850.44;;;1.30;82.84
5126;BME280;63008;53.112;8.896;2023-04-06T04:30:27;101856.50;;;1.37;82.02
5126;BME280;63008;53.112;8.896;2023-04-06T04:32:28;101852.66;;;1.33;81.96
5126;BME280;63008;53.112;8.896;2023-04-06T04:34:29;101855.91;;;1.19;82.76
5126;BME280;63008;53.112;8.896;2023-04-06T04:36:30;101852.63;;;1.17;82.36
5126;BME280;63008;53.112;8.896;2023-04-06T04:38:31;101855.84;;;1.14;82.56
5126;BME280;63008;53.112;8.896;2023-04-06T04:40:32;101852.72;;;1.22;81.91
5126;BME280;63008;53.112;8.896;2023-04-06T04:42:33;101858.97;;;1.22;81.39
5126;BME280;63008;53.112;8.896;2023-04-06T04:44:34;101848.00;;;1.29;81.25
5126;BME280;63008;53.112;8.896;2023-04-06T04:46:35;101844.28;;;1.35;80.57
5126;BME280;63008;53.112;8.896;2023-04-06T04:48:36;101842.16;;;1.37;79.85
5126;BME280;63008;53.112;8.896;2023-04-06T04:50:37;101844.13;;;1.25;80.37
5126;BME280;63008;53.112;8.896;2023-04-06T04:52:43;101852.16;;;1.20;80.49
5126;BME280;63008;53.112;8.896;2023-04-06T04:54:44;101851.00;;;1.16;80.63
5126;BME280;63008;53.112;8.896;2023-04-06T04:56:47;101856.41;;;1.16;80.91
5126;BME280;63008;53.112;8.896;2023-04-06T04:58:48;101847.00;;;1.18;80.18
5126;BME280;63008;53.112;8.896;2023-04-06T05:00:49;101855.59;;;1.15;79.84
5126;BME280;63008;53.112;8.896;2023-04-06T05:02:50;101850.94;;;1.11;79.72
5126;BME280;63008;53.112;8.896;2023-04-06T05:04:51;101853.56;;;1.06;79.55
5126;BME280;63008;53.112;8.896;2023-04-06T05:07:06;101854.78;;;1.15;79.02
5126;BME280;63008;53.112;8.896;2023-04-06T05:09:07;101848.31;;;1.16;79.02
5126;BME280;63008;53.112;8.896;2023-04-06T05:11:08;101849.38;;;1.15;78.91
5126;BME280;63008;53.112;8.896;2023-04-06T05:13:10;101853.22;;;1.02;78.59
5126;BME280;63008;53.112;8.896;2023-04-06T05:15:11;101850.66;;;0.96;79.31
5126;BME280;63008;53.112;8.896;2023-04-06T05:17:12;101848.59;;;1.03;79.26
5126;BME280;63008;53.112;8.896;2023-04-06T05:19:13;101846.88;;;0.97;79.03
5126;BME280;63008;53.112;8.896;2023-04-06T05:21:14;101849.09;;;1.00;78.91
5126;BME280;63008;53.112;8.896;2023-04-06T05:23:15;101850.75;;;1.01;79.29
5126;BME280;63008;53.112;8.896;2023-04-06T05:25:16;101848.28;;;0.99;79.59
5126;BME280;63008;53.112;8.896;2023-04-06T05:27:17;101852.16;;;1.03;79.28
5126;BME280;63008;53.112;8.896;2023-04-06T05:29:18;101850.50;;;1.02;79.56
5126;BME280;63008;53.112;8.896;2023-04-06T05:31:19;101847.09;;;1.07;79.38
5126;BME280;63008;53.112;8.896;2023-04-06T05:33:20;101850.94;;;1.11;79.05
5126;BME280;63008;53.112;8.896;2023-04-06T05:35:21;101848.88;;;1.18;78.99
5126;BME280;63008;53.112;8.896;2023-04-06T05:37:22;101846.31;;;1.11;77.92
5126;BME280;63008;53.112;8.896;2023-04-06T05:39:23;101836.91;;;1.14;78.11
5126;BME280;63008;53.112;8.896;2023-04-06T05:41:24;101845.38;;;1.17;78.23
5126;BME280;63008;53.112;8.896;2023-04-06T05:43:25;101847.16;;;1.12;77.77
5126;BME280;63008;53.112;8.896;2023-04-06T05:45:26;101842.91;;;1.16;77.95
5126;BME280;63008;53.112;8.896;2023-04-06T05:47:27;101839.19;;;1.22;77.73
5126;BME280;63008;53.112;8.896;2023-04-06T05:49:28;101841.50;;;1.30;77.60
5126;BME280;63008;53.112;8.896;2023-04-06T05:51:29;101840.28;;;1.37;77.40
5126;BME280;63008;53.112;8.896;2023-04-06T05:53:30;101845.84;;;1.47;77.27
5126;BME280;63008;53.112;8.896;2023-04-06T05:55:31;101842.41;;;1.52;77.31
5126;BME280;63008;53.112;8.896;2023-04-06T05:57:32;101840.34;;;1.42;76.41
5126;BME280;63008;53.112;8.896;2023-04-06T05:59:33;101848.53;;;1.47;76.92
5126;BME280;63008;53.112;8.896;2023-04-06T06:01:33;101841.00;;;1.49;76.40
5126;BME280;63008;53.112;8.896;2023-04-06T06:03:35;101839.84;;;1.45;76.21
5126;BME280;63008;53.112;8.896;2023-04-06T06:05:36;101840.94;;;1.44;76.59
5126;BME280;63008;53.112;8.896;2023-04-06T06:07:37;101839.84;;;1.62;76.20
5126;BME280;63008;53.112;8.896;2023-04-06T06:09:38;101841.56;;;1.68;76.12
5126;BME280;63008;53.112;8.896;2023-04-06T06:11:39;101841.38;;;1.74;76.12
5126;BME280;63008;53.112;8.896;2023-04-06T06:13:41;101845.00;;;1.79;75.58
5126;BME280;63008;53.112;8.896;2023-04-06T06:15:42;101847.75;;;1.84;75.34
5126;BME280;63008;53.112;8.896;2023-04-06T06:17:43;101839.88;;;1.83;74.79
5126;BME280;63008;53.112;8.896;2023-04-06T06:19:44;101841.59;;;1.89;74.72
5126;BME280;63008;53.112;8.896;2023-04-06T06:21:45;101848.94;;;1.93;74.34
5126;BME280;63008;53.112;8.896;2023-04-06T06:23:46;101845.97;;;2.11;73.39
5126;BME280;63008;53.112;8.896;2023-04-06T06:25:48;101846.41;;;2.03;73.24
5126;BME280;63008;53.112;8.896;2023-04-06T06:27:49;101847.28;;;2.09;72.72
5126;BME280;63008;53.112;8.896;2023-04-06T06:29:50;101845.28;;;2.21;73.35
5126;BME280;63008;53.112;8.896;2023-04-06T06:31:51;101847.03;;;2.32;72.59
5126;BME280;63008;53.112;8.896;2023-04-06T06:33:52;101848.75;;;2.38;71.64
5126;BME280;63008;53.112;8.896;2023-04-06T06:35:53;101851.69;;;2.36;71.45
5126;BME280;63008;53.112;8.896;2023-04-06T06:37:54;101856.16;;;2.47;71.45
5126;BME280;63008;53.112;8.896;2023-04-06T06:39:55;101848.50;;;2.66;71.75
5126;BME280;63008;53.112;8.896;2023-04-06T06:41:56;101850.41;;;2.65;70.70
5126;BME280;63008;53.112;8.896;2023-04-06T06:43:57;101844.78;;;2.72;70.12
5126;BME280;63008;53.112;8.896;2023-04-06T06:45:58;101843.00;;;2.82;68.50
5126;BME280;63008;53.112;8.896;2023-04-06T06:47:59;101840.38;;;2.92;69.27
5126;BME280;63008;53.112;8.896;2023-04-06T06:50:00;101838.78;;;2.96;68.82
5126;BME280;63008;53.112;8.896;2023-04-06T06:52:02;101836.19;;;3.06;69.39
5126;BME280;63008;53.112;8.896;2023-04-06T06:54:03;101825.41;;;3.16;69.18
5126;BME280;63008;53.112;8.896;2023-04-06T06:56:04;101827.66;;;3.24;68.91
5126;BME280;63008;53.112;8.896;2023-04-06T06:58:05;101831.31;;;3.40;68.40
5126;BME280;63008;53.112;8.896;2023-04-06T07:00:07;101829.47;;;3.50;68.00
5126;BME280;63008;53.112;8.896;2023-04-06T07:02:08;101829.00;;;3.58;68.32
5126;BME280;63008;53.112;8.896;2023-04-06T07:04:09;101829.88;;;3.63;67.29
5126;BME280;63008;53.112;8.896;2023-04-06T07:06:10;101826.66;;;3.71;67.08
5126;BME280;63008;53.112;8.896;2023-04-06T07:08:11;101829.75;;;3.90;67.08
5126;BME280;63008;53.112;8.896;2023-04-06T07:10:12;101831.44;;;4.01;66.82
5126;BME280;63008;53.112;8.896;2023-04-06T07:12:13;101832.88;;;4.18;66.49
5126;BME280;63008;53.112;8.896;2023-04-06T07:14:15;101828.03;;;4.30;64.06
5126;BME280;63008;53.112;8.896;2023-04-06T07:16:16;101828.63;;;4.42;63.53
5126;BME280;63008;53.112;8.896;2023-04-06T07:18:18;101830.56;;;4.52;63.93
5126;BME280;63008;53.112;8.896;2023-04-06T07:20:19;101822.69;;;4.60;63.95
5126;BME280;63008;53.112;8.896;2023-04-06T07:22:20;101818.09;;;4.66;63.31
5126;BME280;63008;53.112;8.896;2023-04-06T07:24:21;101817.84;;;4.77;63.36
5126;BME280;63008;53.112;8.896;2023-04-06T07:26:22;101820.06;;;4.85;62.37
5126;BME280;63008;53.112;8.896;2023-04-06T07:28:23;101826.03;;;4.92;61.39
5126;BME280;63008;53.112;8.896;2023-04-06T07:30:24;101814.06;;;4.98;60.97
5126;BME280;63008;53.112;8.896;2023-04-06T07:32:29;101816.00;;;5.13;60.79
5126;BME280;63008;53.112;8.896;2023-04-06T07:34:31;101813.81;;;5.25;61.11
5126;BME280;63008;53.112;8.896;2023-04-06T07:36:32;101803.75;;;5.40;60.76
5126;BME280;63008;53.112;8.896;2023-04-06T07:38:33;101812.97;;;5.54;60.19
5126;BME280;63008;53.112;8.896;2023-04-06T07:40:34;101805.88;;;5.63;57.30
5126;BME280;63008;53.112;8.896;2023-04-06T07:42:34;101808.31;;;5.74;58.23
5126;BME280;63008;53.112;8.896;2023-04-06T07:44:35;101807.22;;;5.85;56.48
5126;BME280;63008;53.112;8.896;2023-04-06T07:46:36;101818.09;;;5.95;56.57
5126;BME280;63008;53.112;8.896;2023-04-06T07:48:37;101813.97;;;6.03;56.03
5126;BME280;63008;53.112;8.896;2023-04-06T07:50:38;101810.16;;;6.09;56.50
5126;BME280;63008;53.112;8.896;2023-04-06T07:52:39;101815.06;;;6.12;54.74
5126;BME280;63008;53.112;8.896;2023-04-06T07:54:41;101816.38;;;6.14;54.82
5126;BME280;63008;53.112;8.896;2023-04-06T07:56:42;101813.63;;;6.24;54.53
5126;BME280;63008;53.112;8.896;2023-04-06T07:58:43;101807.34;;;6.29;54.78
5126;BME280;63008;53.112;8.896;2023-04-06T08:00:45;101799.94;;;6.39;55.23
5126;BME280;63008;53.112;8.896;2023-04-06T08:02:45;101803.72;;;6.43;53.39
5126;BME280;63008;53.112;8.896;2023-04-06T08:04:47;101805.09;;;6.41;53.11
5126;BME280;63008;53.112;8.896;2023-04-06T08:06:48;101811.34;;;6.46;53.63
5126;BME280;63008;53.112;8.896;2023-04-06T08:08:49;101796.91;;;6.46;53.23
5126;BME280;63008;53.112;8.896;2023-04-06T08:10:50;101809.44;;;6.47;53.00
5126;BME280;63008;53.112;8.896;2023-04-06T08:12:52;101802.31;;;6.51;52.93
5126;BME280;63008;53.112;8.896;2023-04-06T08:14:53;101802.03;;;6.57;53.26
5126;BME280;63008;53.112;8.896;2023-04-06T08:16:53;101806.34;;;6.63;53.13
5126;BME280;63008;53.112;8.896;2023-04-06T08:18:55;101796.75;;;6.71;53.23
5126;BME280;63008;53.112;8.896;2023-04-06T08:20:56;101802.38;;;6.89;53.97
5126;BME280;63008;53.112;8.896;2023-04-06T08:22:57;101797.94;;;6.98;52.72
5126;BME280;63008;53.112;8.896;2023-04-06T08:24:58;101795.41;;;7.07;52.28
5126;BME280;63008;53.112;8.896;2023-04-06T08:26:59;101802.16;;;7.14;52.66
5126;BME280;63008;53.112;8.896;2023-04-06T08:29:00;101786.81;;;7.23;51.99
5126;BME280;63008;53.112;8.896;2023-04-06T08:31:05;101793.88;;;7.29;52.07
5126;BME280;63008;53.112;8.896;2023-04-06T08:33:06;101790.56;;;7.32;51.27
5126;BME280;63008;53.112;8.896;2023-04-06T08:35:08;101779.78;;;7.45;50.64
5126;BME280;63008;53.112;8.896;2023-04-06T08:39:12;101783.25;;;7.79;50.77
5126;BME280;63008;53.112;8.896;2023-04-06T08:41:13;101784.47;;;7.92;51.39
5126;BME280;63008;53.112;8.896;2023-04-06T08:43:15;101782.72;;;8.01;50.98
5126;BME280;63008;53.112;8.896;2023-04-06T08:45:17;101778.38;;;8.00;50.43
5126;BME280;63008;53.112;8.896;2023-04-06T08:47:21;101778.25;;;8.10;49.75
5126;BME280;63008;53.112;8.896;2023-04-06T08:49:22;101773.72;;;8.24;49.37
5126;BME280;63008;53.112;8.896;2023-04-06T08:51:24;101774.63;;;8.38;49.43
5126;BME280;63008;53.112;8.896;2023-04-06T08:53:28;101769.34;;;8.65;48.84
5126;BME280;63008;53.112;8.896;2023-04-06T08:55:29;101762.97;;;8.88;48.33
5126;BME280;63008;53.112;8.896;2023-04-06T08:57:30;101772.19;;;8.92;48.15
5126;BME280;63008;53.112;8.896;2023-04-06T08:59:32;101769.88;;;9.17;47.25
5126;BME280;63008;53.112;8.896;2023-04-06T09:01:33;101772.72;;;9.71;47.46
5126;BME280;63008;53.112;8.896;2023-04-06T09:03:40;101770.66;;;10.22;48.32
5126;BME280;63008;53.112;8.896;2023-04-06T09:05:41;101778.47;;;10.77;44.40
5126;BME280;63008;53.112;8.896;2023-04-06T09:07:42;101767.38;;;10.82;44.25
5126;BME280;63008;53.112;8.896;2023-04-06T09:09:43;101769.44;;;10.98;44.08
5126;BME280;63008;53.112;8.896;2023-04-06T09:11:50;101762.16;;;11.46;47.28
5126;BME280;63008;53.112;8.896;2023-04-06T09:13:53;101760.97;;;11.91;41.90
5126;BME280;63008;53.112;8.896;2023-04-06T09:15:59;101774.66;;;12.22;40.70
5126;BME280;63008;53.112;8.896;2023-04-06T09:18:00;101766.91;;;12.24;40.58
5126;BME280;63008;53.112;8.896;2023-04-06T09:20:02;101767.09;;;12.36;39.56
5126;BME280;63008;53.112;8.896;2023-04-06T09:22:04;101765.00;;;12.50;39.67
5126;BME280;63008;53.112;8.896;2023-04-06T09:24:08;101775.88;;;12.55;39.44
5126;BME280;63008;53.112;8.896;2023-04-06T09:26:11;101773.84;;;12.21;39.91
5126;BME280;63008;53.112;8.896;2023-04-06T09:28:12;101771.03;;;12.52;39.76
5126;BME280;63008;53.112;8.896;2023-04-06T09:30:13;101767.16;;;12.86;39.62
5126;BME280;63008;53.112;8.896;2023-04-06T09:32:16;101767.69;;;13.05;39.03
5126;BME280;63008;53.112;8.896;2023-04-06T09:34:21;101755.16;;;13.16;41.36
5126;BME280;63008;53.112;8.896;2023-04-06T09:36:33;101756.31;;;13.07;40.35
5126;BME280;63008;53.112;8.896;2023-04-06T09:38:37;101755.03;;;13.13;43.44
5126;BME280;63008;53.112;8.896;2023-04-06T09:40:50;101766.34;;;13.28;41.59
5126;BME280;63008;53.112;8.896;2023-04-06T09:42:51;101756.47;;;13.73;39.71
5126;BME280;63008;53.112;8.896;2023-04-06T09:44:54;101753.66;;;13.90;38.92
5126;BME280;63008;53.112;8.896;2023-04-06T09:46:55;101756.69;;;13.60;40.04
5126;BME280;63008;53.112;8.896;2023-04-06T09:48:56;101752.47;;;13.62;39.81
5126;BME280;63008;53.112;8.896;2023-04-06T09:50:59;101754.28;;;13.58;40.14
5126;BME280;63008;53.112;8.896;2023-04-06T09:53:04;101765.66;;;14.32;36.97
5126;BME280;63008;53.112;8.896;2023-04-06T09:55:05;101765.84;;;14.56;35.82
5126;BME280;63008;53.112;8.896;2023-04-06T09:59:45;101759.03;;;14.53;35.79
5126;BME280;63008;53.112;8.896;2023-04-06T10:01:50;101758.03;;;14.58;35.98
5126;BME280;63008;53.112;8.896;2023-04-06T10:03:56;101760.66;;;14.54;36.22
5126;BME280;63008;53.112;8.896;2023-04-06T10:06:10;101758.97;;;15.02;36.66
5126;BME280;63008;53.112;8.896;2023-04-06T10:08:13;101751.22;;;14.96;36.78
5126;BME280;63008;53.112;8.896;2023-04-06T10:10:14;101751.75;;;14.49;36.63
5126;BME280;63008;53.112;8.896;2023-04-06T10:12:16;101757.16;;;14.86;35.48
5126;BME280;63008;53.112;8.896;2023-04-06T10:14:17;101743.63;;;14.72;37.17
5126;BME280;63008;53.112;8.896;2023-04-06T10:16:18;101752.09;;;14.47;37.79
5126;BME280;63008;53.112;8.896;2023-04-06T10:18:20;101752.72;;;14.73;36.48
5126;BME280;63008;53.112;8.896;2023-04-06T10:20:49;101750.69;;;14.62;36.20
5126;BME280;63008;53.112;8.896;2023-04-06T10:22:56;101749.28;;;14.56;37.49
5126;BME280;63008;53.112;8.896;2023-04-06T10:24:59;101749.94;;;14.53;37.93
5126;BME280;63008;53.112;8.896;2023-04-06T10:27:01;101757.63;;;14.88;38.97
5126;BME280;63008;53.112;8.896;2023-04-06T10:29:03;101751.88;;;15.34;35.70
5126;BME280;63008;53.112;8.896;2023-04-06T10:31:05;101746.19;;;15.63;35.33
5126;BME280;63008;53.112;8.896;2023-04-06T10:33:17;101742.53;;;15.38;35.46
5126;BME280;63008;53.112;8.896;2023-04-06T10:35:18;101748.34;;;14.92;35.52
5126;BME280;63008;53.112;8.896;2023-04-06T10:37:19;101743.78;;;15.29;35.68
5126;BME280;63008;53.112;8.896;2023-04-06T10:39:24;101744.66;;;15.21;35.32
5126;BME280;63008;53.112;8.896;2023-04-06T10:41:41;101738.81;;;15.79;35.92
5126;BME280;63008;53.112;8.896;2023-04-06T10:43:42;101733.94;;;15.64;34.93
5126;BME280;63008;53.112;8.896;2023-04-06T10:45:43;101730.06;;;16.01;36.27
5126;BME280;63008;53.112;8.896;2023-04-06T10:47:44;101739.28;;;15.81;36.58
5126;BME280;63008;53.112;8.896;2023-04-06T10:49:45;101731.88;;;15.28;36.56
5126;BME280;63008;53.112;8.896;2023-04-06T10:51:52;101742.13;;;15.48;34.54
5126;BME280;63008;53.112;8.896;2023-04-06T10:53:55;101734.41;;;15.66;34.92
5126;BME280;63008;53.112;8.896;2023-04-06T10:55:56;101739.81;;;15.50;34.79
5126;BME280;63008;53.112;8.896;2023-04-06T10:57:57;101735.72;;;15.92;35.59